Time;durP1;ratioP1;P1;durP2;ratioP2;P2;SDS_P1;SDS_P2;PMS_P1;PMS_P2;Temp;Humidity;BMP_temperature;BMP_pressure;BME280_temperature;BME280_humidity;BME280_pressure;Samples;Min_cycle;Max_cycle;Signal;HPM_P1;HPM_P2
2021/01/20 00:00:13;;;;;;;15.80;5.60;;;7.20;99.90;;;;;;3920422;30;20190;-94
2021/01/20 00:02:16;;;;;;;11.03;6.27;;;7.10;99.90;;;;;;3907478;30;20540;-93
2021/01/20 00:04:17;;;;;;;12.27;5.47;;;7.10;99.90;;;;;;3919607;30;20226;-93
2021/01/20 00:06:19;;;;;;;13.57;6.40;;;7.20;99.90;;;;;;3906275;30;20196;-94
2021/01/20 00:08:20;;;;;;;10.53;5.07;;;7.20;99.90;;;;;;3920960;30;20171;-93
2021/01/20 00:10:23;;;;;;;12.00;6.10;;;7.30;99.90;;;;;;3919364;30;20265;-93
2021/01/20 00:12:24;;;;;;;14.33;5.70;;;7.30;99.90;;;;;;3921237;30;20655;-93
2021/01/20 00:14:25;;;;;;;14.13;5.70;;;7.30;99.90;;;;;;3920762;30;20219;-94
2021/01/20 00:16:28;;;;;;;7.10;4.53;;;7.30;99.90;;;;;;3905591;30;20234;-92
2021/01/20 00:18:32;;;;;;;16.13;6.33;;;7.30;99.90;;;;;;3938953;30;20194;-94
2021/01/20 00:20:33;;;;;;;9.37;3.97;;;7.20;99.90;;;;;;3936497;30;20206;-93
2021/01/20 00:22:34;;;;;;;10.50;4.60;;;7.20;99.90;;;;;;3921503;30;20769;-94
2021/01/20 00:24:40;;;;;;;13.10;5.73;;;7.20;99.90;;;;;;3905973;30;20289;-94
2021/01/20 00:26:48;;;;;;;14.37;6.17;;;7.40;99.90;;;;;;3908241;30;20187;-95
2021/01/20 00:28:48;;;;;;;13.47;6.43;;;7.40;99.90;;;;;;3933862;30;20190;-92
2021/01/20 00:30:55;;;;;;;12.23;5.47;;;7.30;99.90;;;;;;3919924;30;20268;-95
2021/01/20 00:32:58;;;;;;;11.33;5.13;;;7.30;99.90;;;;;;3906645;30;20216;-93
2021/01/20 00:35:07;;;;;;;10.50;5.83;;;7.30;99.90;;;;;;3921085;30;20203;-94
2021/01/20 00:37:08;;;;;;;11.77;6.10;;;7.30;99.90;;;;;;3918840;30;20190;-93
2021/01/20 00:39:09;;;;;;;12.30;5.17;;;7.30;99.90;;;;;;3907163;30;20184;-94
2021/01/20 00:41:12;;;;;;;11.00;6.30;;;7.30;99.90;;;;;;3906407;30;20676;-93
2021/01/20 00:43:15;;;;;;;12.87;6.10;;;7.30;99.90;;;;;;3920013;30;20190;-94
2021/01/20 00:45:19;;;;;;;13.00;5.90;;;7.40;99.90;;;;;;3904602;30;20311;-94
2021/01/20 00:47:22;;;;;;;10.90;6.10;;;7.40;99.90;;;;;;3920486;30;20186;-93
2021/01/20 00:49:26;;;;;;;9.30;4.30;;;7.40;99.90;;;;;;3919050;30;20564;-93
2021/01/20 00:51:30;;;;;;;12.27;4.93;;;7.40;99.90;;;;;;3921059;30;20202;-93
2021/01/20 00:53:30;;;;;;;11.57;5.60;;;7.40;99.90;;;;;;3919782;30;20282;-93
2021/01/20 00:55:31;;;;;;;13.93;5.57;;;7.40;99.90;;;;;;3904929;30;20679;-92
2021/01/20 00:57:32;;;;;;;10.30;6.00;;;7.40;99.90;;;;;;3907834;30;20215;-94
2021/01/20 00:59:33;;;;;;;11.83;5.00;;;7.40;99.90;;;;;;3920520;30;20191;-95
2021/01/20 01:01:38;;;;;;;11.43;5.30;;;7.40;99.90;;;;;;3906121;30;20179;-95
2021/01/20 01:03:48;;;;;;;11.53;5.77;;;7.50;99.90;;;;;;3905261;30;20269;-93
2021/01/20 01:05:48;;;;;;;11.47;6.03;;;7.50;99.90;;;;;;3918719;30;20187;-95
2021/01/20 01:07:53;;;;;;;9.63;4.97;;;7.50;99.90;;;;;;3934421;30;20179;-96
2021/01/20 01:09:58;;;;;;;11.40;5.27;;;7.50;99.90;;;;;;3919431;30;20234;-94
2021/01/20 01:12:18;;;;;;;12.50;5.37;;;7.50;99.90;;;;;;3921997;30;20202;-93
2021/01/20 01:14:22;;;;;;;10.57;5.03;;;7.50;99.90;;;;;;3921304;30;20241;-94
2021/01/20 01:16:30;;;;;;;8.87;4.90;;;7.50;99.90;;;;;;3922478;30;20240;-96
2021/01/20 01:18:31;;;;;;;12.97;6.17;;;7.50;99.90;;;;;;3919704;30;20273;-94
2021/01/20 01:20:37;;;;;;;13.00;4.67;;;7.60;99.90;;;;;;3919904;30;20548;-95
2021/01/20 01:22:41;;;;;;;11.80;5.70;;;7.50;99.90;;;;;;3920464;30;20660;-94
2021/01/20 01:24:48;;;;;;;11.13;4.90;;;7.50;99.90;;;;;;3917256;30;20223;-92
2021/01/20 01:26:49;;;;;;;10.50;4.60;;;7.60;99.90;;;;;;3936141;30;20675;-92
2021/01/20 01:28:50;;;;;;;9.60;5.37;;;7.60;99.90;;;;;;3923927;30;20541;-95
2021/01/20 01:30:59;;;;;;;10.40;5.73;;;7.60;99.90;;;;;;3937552;30;20185;-93
2021/01/20 01:33:01;;;;;;;8.83;5.03;;;7.70;99.90;;;;;;3936767;30;20182;-95
2021/01/20 01:35:07;;;;;;;10.50;4.83;;;7.60;99.90;;;;;;3936052;30;20301;-93
2021/01/20 01:37:11;;;;;;;11.00;5.10;;;7.70;99.90;;;;;;3923010;30;20210;-95
2021/01/20 01:39:42;;;;;;;5.63;3.40;;;7.80;99.90;;;;;;3936022;30;20193;-94
2021/01/20 01:41:47;;;;;;;10.47;4.60;;;7.70;99.90;;;;;;3923022;30;20191;-94
2021/01/20 01:43:50;;;;;;;12.23;4.83;;;7.80;99.90;;;;;;3936484;30;20234;-94
2021/01/20 01:45:58;;;;;;;7.30;3.10;;;7.70;99.90;;;;;;3907820;30;20661;-94
2021/01/20 01:47:58;;;;;;;7.90;4.20;;;7.80;99.90;;;;;;3906618;30;20183;-93
2021/01/20 01:50:08;;;;;;;11.17;5.13;;;7.80;99.90;;;;;;3922662;30;20220;-93
2021/01/20 01:52:10;;;;;;;8.80;4.70;;;7.80;99.90;;;;;;3922624;30;20179;-93
2021/01/20 01:54:15;;;;;;;8.27;4.50;;;7.80;99.90;;;;;;3921918;30;20664;-93
2021/01/20 01:56:16;;;;;;;8.40;3.43;;;7.70;99.90;;;;;;3922660;30;20599;-94
2021/01/20 01:58:25;;;;;;;9.63;4.53;;;7.80;99.90;;;;;;3923241;30;20183;-94
2021/01/20 02:00:37;;;;;;;6.73;3.60;;;7.90;99.90;;;;;;3908045;30;20219;-92
2021/01/20 02:02:49;;;;;;;8.50;3.67;;;7.80;99.90;;;;;;3921333;30;20199;-94
2021/01/20 02:04:56;;;;;;;9.13;4.60;;;7.80;99.90;;;;;;3908644;30;20244;-96
2021/01/20 02:07:02;;;;;;;10.50;3.73;;;7.80;99.90;;;;;;3907050;30;20549;-92
2021/01/20 02:09:11;;;;;;;9.83;4.57;;;7.80;99.90;;;;;;3921024;30;20191;-92
2021/01/20 02:11:20;;;;;;;4.73;2.83;;;7.70;99.90;;;;;;3905978;30;20270;-92
2021/01/20 02:13:44;;;;;;;6.73;3.40;;;7.60;99.90;;;;;;3921658;30;20543;-93
2021/01/20 02:16:22;;;;;;;10.07;4.13;;;7.60;99.90;;;;;;3920035;30;20257;-94
2021/01/20 02:18:30;;;;;;;10.60;4.83;;;7.50;99.90;;;;;;3920814;30;20217;-94
2021/01/20 02:21:06;;;;;;;9.83;5.50;;;7.70;99.90;;;;;;3922108;30;20190;-93
2021/01/20 02:23:23;;;;;;;9.40;5.60;;;7.60;99.90;;;;;;3923475;30;20208;-93
2021/01/20 02:25:33;;;;;;;9.27;5.60;;;7.70;99.90;;;;;;3936354;30;20190;-91
2021/01/20 02:28:15;;;;;;;12.13;4.87;;;7.70;99.90;;;;;;3936331;30;20261;-93
2021/01/20 02:30:38;;;;;;;8.27;4.90;;;7.70;99.90;;;;;;3937347;30;20333;-93
2021/01/20 02:32:53;;;;;;;9.67;4.03;;;7.70;99.90;;;;;;3922306;30;20194;-94
2021/01/20 02:35:07;;;;;;;10.73;3.93;;;7.70;99.90;;;;;;3923590;30;20199;-93
2021/01/20 02:37:37;;;;;;;10.37;4.67;;;7.70;99.90;;;;;;3936631;24;20237;-94
2021/01/20 02:40:17;;;;;;;7.90;4.80;;;7.70;99.90;;;;;;3922597;30;20194;-93
2021/01/20 02:42:29;;;;;;;8.37;4.57;;;7.70;99.90;;;;;;3914632;30;20199;-93
2021/01/20 02:44:39;;;;;;;6.80;3.30;;;7.80;99.90;;;;;;3936443;30;20300;-94
2021/01/20 02:46:58;;;;;;;6.33;3.00;;;7.80;99.90;;;;;;3921053;30;20183;-94
2021/01/20 02:49:19;;;;;;;9.53;5.07;;;7.80;99.90;;;;;;3911839;30;20308;-92
2021/01/20 02:51:45;;;;;;;7.63;4.30;;;7.80;99.90;;;;;;3922749;30;20190;-93
2021/01/20 02:54:14;;;;;;;9.83;4.90;;;7.80;99.90;;;;;;3934188;30;20217;-93
2021/01/20 02:56:48;;;;;;;8.70;4.67;;;7.80;99.90;;;;;;3908161;30;20198;-94
2021/01/20 02:59:02;;;;;;;7.83;3.67;;;7.90;99.90;;;;;;3937217;30;20186;-93
2021/01/20 03:01:29;;;;;;;7.50;3.23;;;7.80;99.90;;;;;;3925216;30;20190;-94
2021/01/20 03:03:33;;;;;;;10.00;3.57;;;7.60;99.90;;;;;;3923000;30;20669;-93
2021/01/20 03:05:37;;;;;;;7.83;3.07;;;7.60;99.90;;;;;;3935597;30;20182;-94
2021/01/20 03:07:40;;;;;;;6.07;3.47;;;7.70;99.90;;;;;;3936419;30;20175;-94
2021/01/20 03:09:50;;;;;;;12.50;4.50;;;7.70;99.90;;;;;;3937906;30;20178;-92
2021/01/20 03:11:55;;;;;;;6.07;2.73;;;7.60;99.90;;;;;;3938145;30;20194;-95
2021/01/20 03:13:56;;;;;;;6.93;4.17;;;7.70;99.90;;;;;;3920658;30;20207;-93
2021/01/20 03:16:04;;;;;;;7.90;3.53;;;7.70;99.90;;;;;;3922506;30;20232;-94
2021/01/20 03:18:06;;;;;;;9.83;4.40;;;7.60;99.90;;;;;;3934622;30;20190;-93
2021/01/20 03:20:07;;;;;;;9.57;4.53;;;7.80;99.90;;;;;;3935815;30;20174;-93
2021/01/20 03:22:08;;;;;;;8.33;4.63;;;7.90;99.90;;;;;;3937393;30;20189;-95
2021/01/20 03:24:13;;;;;;;12.77;4.97;;;7.90;99.90;;;;;;3931558;24;20258;-94
2021/01/20 03:26:13;;;;;;;6.83;3.83;;;7.80;99.90;;;;;;3950332;30;20238;-93
2021/01/20 03:28:15;;;;;;;9.13;5.00;;;7.60;99.90;;;;;;3951468;30;20574;-93
2021/01/20 03:30:21;;;;;;;11.30;4.97;;;7.80;99.90;;;;;;3950113;30;20173;-93
2021/01/20 03:32:24;;;;;;;8.30;3.17;;;7.80;99.90;;;;;;3950189;30;20190;-93
2021/01/20 03:34:25;;;;;;;9.30;5.13;;;7.60;99.90;;;;;;3952042;30;20226;-93
2021/01/20 03:36:31;;;;;;;6.37;3.83;;;7.60;99.90;;;;;;3949702;30;20609;-92
2021/01/20 03:38:32;;;;;;;8.97;4.27;;;7.60;99.90;;;;;;3950396;30;20268;-94
2021/01/20 03:40:36;;;;;;;8.23;3.67;;;7.60;99.90;;;;;;3949638;30;20170;-94
2021/01/20 03:42:42;;;;;;;5.43;2.43;;;7.50;99.90;;;;;;3950441;30;20181;-94
2021/01/20 03:44:44;;;;;;;7.10;2.93;;;7.50;99.90;;;;;;3951160;30;20311;-93
2021/01/20 03:46:50;;;;;;;9.40;3.50;;;7.50;99.90;;;;;;3950300;30;20204;-93
2021/01/20 03:48:57;;;;;;;7.00;2.83;;;7.60;99.90;;;;;;3964644;29;20316;-93
2021/01/20 03:50:58;;;;;;;9.37;3.20;;;7.60;99.90;;;;;;3952382;30;20166;-93
2021/01/20 03:53:00;;;;;;;5.97;3.10;;;7.50;99.90;;;;;;3950732;30;20165;-93
2021/01/20 03:55:01;;;;;;;9.03;3.33;;;7.70;99.90;;;;;;3950049;30;20202;-94
2021/01/20 03:57:03;;;;;;;7.63;2.60;;;7.70;99.90;;;;;;3951156;30;20189;-96
2021/01/20 03:59:07;;;;;;;5.90;2.90;;;7.70;99.90;;;;;;3952228;30;20185;-94
2021/01/20 04:01:12;;;;;;;5.00;2.73;;;7.70;99.90;;;;;;3948851;30;20170;-94
2021/01/20 04:03:20;;;;;;;4.73;2.40;;;7.70;99.90;;;;;;3951815;30;20218;-94
2021/01/20 04:05:46;;;;;;;5.17;2.70;;;7.70;99.90;;;;;;3936371;30;20190;-93
2021/01/20 04:07:48;;;;;;;7.37;2.83;;;7.80;99.90;;;;;;3951781;30;20182;-92
2021/01/20 04:09:49;;;;;;;5.47;2.40;;;7.90;99.90;;;;;;3933283;30;20198;-93
2021/01/20 04:11:51;;;;;;;3.93;2.57;;;8.00;99.90;;;;;;3948671;30;20277;-94
2021/01/20 04:14:00;;;;;;;5.73;2.43;;;8.00;99.90;;;;;;3952157;30;20696;-92
2021/01/20 04:16:02;;;;;;;4.93;2.20;;;8.00;99.90;;;;;;3936908;30;20189;-94
2021/01/20 04:18:09;;;;;;;6.23;2.60;;;8.20;99.90;;;;;;3935677;30;20182;-94
2021/01/20 04:20:11;;;;;;;3.80;1.50;;;8.10;99.90;;;;;;3949533;30;20193;-93
2021/01/20 04:22:16;;;;;;;3.17;1.57;;;8.20;99.90;;;;;;3949289;30;20184;-94
2021/01/20 04:24:29;;;;;;;6.13;2.10;;;8.30;99.90;;;;;;3950439;30;20220;-94
2021/01/20 04:26:30;;;;;;;3.60;1.90;;;8.30;99.90;;;;;;3920972;30;20407;-93
2021/01/20 04:28:32;;;;;;;8.80;2.33;;;8.30;99.90;;;;;;3921963;30;20229;-92
2021/01/20 04:30:33;;;;;;;6.07;2.40;;;8.30;99.90;;;;;;3919825;30;20278;-95
2021/01/20 04:32:34;;;;;;;4.37;1.87;;;8.40;99.90;;;;;;3918648;30;20209;-93
2021/01/20 04:34:41;;;;;;;7.83;2.40;;;8.40;99.90;;;;;;3934342;30;20241;-93
2021/01/20 04:36:42;;;;;;;3.30;1.87;;;8.30;99.90;;;;;;3919890;30;20198;-93
2021/01/20 04:38:45;;;;;;;3.60;1.60;;;8.40;99.90;;;;;;3920695;30;20179;-94
2021/01/20 04:40:46;;;;;;;4.83;2.10;;;8.50;99.90;;;;;;3933993;30;20189;-92
2021/01/20 04:42:47;;;;;;;3.13;2.20;;;8.60;99.90;;;;;;3919557;30;20179;-92
2021/01/20 04:44:51;;;;;;;3.47;2.00;;;8.60;99.90;;;;;;3920520;30;20226;-94
2021/01/20 04:46:53;;;;;;;4.30;1.57;;;8.50;99.90;;;;;;3934922;30;20507;-93
2021/01/20 04:49:01;;;;;;;3.07;1.37;;;8.50;99.90;;;;;;3921053;30;20336;-95
2021/01/20 04:51:03;;;;;;;3.83;1.80;;;8.50;99.90;;;;;;3934459;30;20269;-95
2021/01/20 04:53:12;;;;;;;2.73;1.60;;;8.50;99.90;;;;;;3919987;30;20187;-92
2021/01/20 04:55:14;;;;;;;2.70;1.07;;;8.50;99.90;;;;;;3919136;30;20194;-94
2021/01/20 04:57:15;;;;;;;3.23;1.47;;;8.40;99.90;;;;;;3918474;30;20622;-93
2021/01/20 04:59:29;;;;;;;2.40;0.97;;;8.40;99.90;;;;;;3919880;30;20229;-95
2021/01/20 05:01:34;;;;;;;5.80;1.90;;;8.40;99.90;;;;;;3933452;30;20221;-93
2021/01/20 05:03:45;;;;;;;5.13;1.97;;;8.40;99.90;;;;;;3920261;30;20256;-93
2021/01/20 05:05:50;;;;;;;2.13;1.30;;;8.30;99.90;;;;;;3920148;30;20190;-93
2021/01/20 05:07:54;;;;;;;3.87;2.13;;;8.30;99.90;;;;;;3936247;30;20285;-93
2021/01/20 05:09:58;;;;;;;4.70;1.50;;;8.30;99.90;;;;;;3921663;30;20318;-95
2021/01/20 05:12:00;;;;;;;2.10;1.20;;;8.30;99.90;;;;;;3939020;30;20203;-94
2021/01/20 05:14:12;;;;;;;4.27;1.63;;;8.20;99.90;;;;;;3919570;30;20268;-92
2021/01/20 05:16:28;;;;;;;4.40;1.97;;;8.10;99.90;;;;;;3924738;30;20194;-94
2021/01/20 05:18:45;;;;;;;2.53;1.60;;;8.10;99.90;;;;;;3920609;30;20204;-93
2021/01/20 05:20:46;;;;;;;4.30;1.83;;;8.10;99.90;;;;;;3919714;30;20218;-94
2021/01/20 05:23:04;;;;;;;4.40;1.50;;;8.00;99.90;;;;;;3921523;30;20179;-92
2021/01/20 05:25:10;;;;;;;2.57;1.27;;;7.90;99.90;;;;;;3933345;30;20242;-94
2021/01/20 05:27:10;;;;;;;5.93;2.17;;;7.90;99.90;;;;;;3919222;30;20692;-92
2021/01/20 05:29:12;;;;;;;5.20;2.23;;;7.80;99.90;;;;;;3934420;30;20178;-93
2021/01/20 05:31:36;;;;;;;4.80;2.53;;;7.80;99.90;;;;;;3919959;30;20180;-94
2021/01/20 05:33:40;;;;;;;3.20;1.40;;;7.80;99.90;;;;;;3919982;30;20179;-93
2021/01/20 05:35:45;;;;;;;3.80;2.03;;;7.60;99.90;;;;;;3933919;30;20186;-92
2021/01/20 05:37:47;;;;;;;2.07;1.47;;;7.60;99.90;;;;;;3934661;30;20240;-95
2021/01/20 05:40:12;;;;;;;7.37;1.90;;;7.60;99.90;;;;;;3934462;30;20193;-94
2021/01/20 05:42:16;;;;;;;3.40;2.13;;;7.50;99.90;;;;;;3920810;30;20175;-94
2021/01/20 05:44:17;;;;;;;4.17;1.87;;;7.50;99.90;;;;;;3922200;30;20246;-94
2021/01/20 05:46:32;;;;;;;4.53;1.97;;;7.60;99.90;;;;;;3923008;30;20183;-93
2021/01/20 05:48:45;;;;;;;3.00;1.83;;;7.70;99.90;;;;;;3919158;30;20292;-92
2021/01/20 05:50:58;;;;;;;4.93;2.13;;;7.60;99.90;;;;;;3919621;30;20182;-94
2021/01/20 05:53:13;;;;;;;5.00;2.13;;;7.50;99.90;;;;;;3935304;30;20635;-92
2021/01/20 05:55:15;;;;;;;5.80;2.03;;;7.60;99.90;;;;;;3934272;30;20202;-92
2021/01/20 05:57:20;;;;;;;4.10;2.40;;;7.60;99.90;;;;;;3919562;30;20274;-91
2021/01/20 05:59:29;;;;;;;6.10;2.30;;;7.60;99.90;;;;;;3921732;30;20190;-94
2021/01/20 06:01:33;;;;;;;3.33;2.07;;;7.70;99.90;;;;;;3920684;30;20277;-92
2021/01/20 06:03:35;;;;;;;5.70;1.63;;;7.70;99.90;;;;;;3920508;30;20242;-94
2021/01/20 06:05:39;;;;;;;6.10;2.27;;;7.70;99.90;;;;;;3920103;30;20193;-94
2021/01/20 06:07:45;;;;;;;2.60;1.60;;;7.70;99.90;;;;;;3936263;30;20175;-92
2021/01/20 06:09:46;;;;;;;4.17;1.63;;;7.70;99.90;;;;;;3932900;30;20179;-93
2021/01/20 06:11:48;;;;;;;2.17;1.53;;;7.70;99.90;;;;;;3934906;30;20186;-95
2021/01/20 06:13:49;;;;;;;4.10;1.40;;;7.70;99.90;;;;;;3921993;30;20239;-92
2021/01/20 06:15:56;;;;;;;4.60;2.17;;;7.60;99.90;;;;;;3925536;30;20175;-95
2021/01/20 06:17:58;;;;;;;3.30;1.60;;;7.60;99.90;;;;;;3921551;30;20175;-93
2021/01/20 06:20:03;;;;;;;6.20;2.33;;;7.50;99.90;;;;;;3924721;30;20190;-94
2021/01/20 06:22:05;;;;;;;4.90;2.00;;;7.80;99.90;;;;;;3923513;30;20228;-95
2021/01/20 06:24:14;;;;;;;3.03;1.60;;;7.60;99.90;;;;;;3922062;30;20565;-95
2021/01/20 06:26:16;;;;;;;3.20;1.80;;;7.60;99.90;;;;;;3934940;30;20226;-96
2021/01/20 06:28:20;;;;;;;5.03;2.33;;;7.60;99.90;;;;;;3988025;24;20180;-93
2021/01/20 06:30:26;;;;;;;4.03;2.13;;;7.60;99.90;;;;;;3952544;30;20185;-94
2021/01/20 06:32:30;;;;;;;3.43;1.97;;;7.50;99.90;;;;;;3955047;30;20198;-93
2021/01/20 06:34:34;;;;;;;4.30;2.17;;;7.50;99.90;;;;;;3953040;30;20206;-94
2021/01/20 06:36:44;;;;;;;3.47;1.77;;;7.60;99.90;;;;;;3969683;30;20660;-94
2021/01/20 06:38:47;;;;;;;6.30;2.43;;;7.60;99.90;;;;;;3955479;30;20194;-95
2021/01/20 06:40:51;;;;;;;5.80;2.00;;;7.90;99.90;;;;;;3949941;30;20185;-93
2021/01/20 06:42:57;;;;;;;4.87;2.57;;;7.70;99.90;;;;;;3954590;29;20712;-92
2021/01/20 06:45:22;;;;;;;4.87;2.20;;;7.70;99.90;;;;;;3952579;30;20287;-94
2021/01/20 06:47:23;;;;;;;3.90;2.00;;;7.70;99.90;;;;;;3949611;30;20170;-94
2021/01/20 06:49:32;;;;;;;5.57;2.03;;;7.60;99.90;;;;;;3968919;29;20180;-93
2021/01/20 06:51:39;;;;;;;4.47;2.07;;;7.70;99.90;;;;;;3954424;29;20186;-95
2021/01/20 06:54:12;;;;;;;3.17;1.90;;;7.70;99.90;;;;;;3954127;30;20170;-95
2021/01/20 06:57:00;;;;;;;4.07;2.10;;;7.80;99.90;;;;;;3966631;29;20189;-95
2021/01/20 06:59:36;;;;;;;3.20;2.00;;;8.00;99.90;;;;;;3950473;29;20197;-93
2021/01/20 07:01:38;;;;;;;2.47;1.27;;;7.90;99.90;;;;;;3954245;30;20178;-94
2021/01/20 07:03:53;;;;;;;3.00;1.40;;;7.80;99.90;;;;;;3951868;30;20206;-94
2021/01/20 07:06:02;;;;;;;2.60;1.60;;;7.80;99.90;;;;;;3968095;30;20204;-94
2021/01/20 07:08:08;;;;;;;3.60;2.10;;;7.90;99.90;;;;;;3965578;29;20173;-95
2021/01/20 07:10:09;;;;;;;4.17;1.77;;;8.10;99.90;;;;;;3969984;30;20173;-94
2021/01/20 07:12:10;;;;;;;5.33;1.73;;;8.10;99.90;;;;;;3951473;30;20188;-93
2021/01/20 07:14:29;;;;;;;5.13;1.97;;;8.00;99.90;;;;;;3954503;30;20217;-95
2021/01/20 07:16:30;;;;;;;6.67;2.60;;;8.00;99.90;;;;;;3951803;30;20185;-94
2021/01/20 07:18:40;;;;;;;5.10;2.50;;;7.90;99.90;;;;;;3966954;29;20185;-94
2021/01/20 07:20:42;;;;;;;7.30;3.20;;;7.80;99.90;;;;;;3967821;30;20271;-95
2021/01/20 07:22:43;;;;;;;5.13;2.77;;;8.00;99.90;;;;;;3969646;29;20654;-94
2021/01/20 07:24:44;;;;;;;6.43;2.90;;;8.00;99.90;;;;;;3966241;29;20224;-92
2021/01/20 07:26:46;;;;;;;4.40;2.47;;;7.80;99.90;;;;;;3951135;30;20205;-94
2021/01/20 07:29:18;;;;;;;5.00;2.53;;;7.80;99.90;;;;;;3953639;30;20233;-96
2021/01/20 07:31:39;;;;;;;8.33;2.70;;;7.80;99.90;;;;;;3955007;30;20223;-96
2021/01/20 07:33:58;;;;;;;9.53;2.80;;;7.80;99.90;;;;;;3952115;30;20189;-95
2021/01/20 07:36:26;;;;;;;6.77;2.77;;;7.90;99.90;;;;;;3967884;29;20242;-94
2021/01/20 07:38:33;;;;;;;4.97;2.53;;;7.80;99.90;;;;;;3968481;29;20189;-95
2021/01/20 07:40:42;;;;;;;6.43;2.70;;;7.70;99.90;;;;;;3952755;30;20196;-94
2021/01/20 07:42:59;;;;;;;3.60;1.90;;;7.70;99.90;;;;;;3955265;30;20188;-93
2021/01/20 07:45:09;;;;;;;7.90;2.93;;;7.60;99.90;;;;;;3952068;30;20225;-94
2021/01/20 07:47:21;;;;;;;4.30;2.63;;;7.60;99.90;;;;;;3952173;30;20201;-95
2021/01/20 07:49:28;;;;;;;5.60;2.13;;;7.60;99.90;;;;;;3951625;30;20189;-94
2021/01/20 07:51:29;;;;;;;5.67;2.43;;;7.70;99.90;;;;;;3955661;30;20190;-94
2021/01/20 07:53:33;;;;;;;5.37;2.80;;;7.80;99.90;;;;;;3976843;24;20245;-92
2021/01/20 07:58:06;;;;;;;4.30;1.90;;;7.70;99.90;;;;;;4074436;24;20246;-93
2021/01/20 08:00:16;;;;;;;8.03;3.10;;;7.80;99.90;;;;;;3936208;30;20194;-94
2021/01/20 08:02:36;;;;;;;;;;;;;;;;;;;;;
2021/01/20 08:05:01;;;;;;;9.30;2.27;;;7.80;99.90;;;;;;3967366;29;20233;-94
2021/01/20 08:07:10;;;;;;;5.53;2.27;;;8.00;99.90;;;;;;3938023;30;20182;-94
2021/01/20 08:09:39;;;;;;;3.30;1.50;;;8.00;99.90;;;;;;3939833;30;20625;-94
2021/01/20 08:11:46;;;;;;;9.30;2.10;;;8.00;99.90;;;;;;3935614;30;20671;-96
2021/01/20 08:14:13;;;;;;;5.53;2.10;;;8.00;99.90;;;;;;3935689;30;20218;-94
2021/01/20 08:16:20;;;;;;;4.27;2.10;;;7.90;99.90;;;;;;3952763;30;20243;-94
2021/01/20 08:18:47;;;;;;;6.23;1.90;;;7.80;99.90;;;;;;3937993;30;20181;-94
2021/01/20 08:23:07;;;;;;;4.13;2.20;;;7.80;99.90;;;;;;4010966;24;20705;-95
2021/01/20 08:25:27;;;;;;;4.50;1.87;;;7.90;99.90;;;;;;3940383;30;20222;-95
2021/01/20 08:30:14;;;;;;;4.13;2.00;;;8.10;99.90;;;;;;3960779;30;20188;-93
2021/01/20 08:32:15;;;;;;;4.10;1.73;;;8.20;99.90;;;;;;3977312;24;20241;-96
2021/01/20 08:34:47;;;;;;;3.00;1.57;;;8.00;99.90;;;;;;3950196;30;20701;-94
2021/01/20 08:37:30;;;;;;;5.83;1.87;;;7.90;99.90;;;;;;3949920;30;20288;-95
2021/01/20 08:39:55;;;;;;;5.47;1.97;;;8.00;99.90;;;;;;3950906;30;20189;-93
2021/01/20 08:42:40;;;;;;;6.73;1.70;;;8.10;99.90;;;;;;3951612;30;20170;-95
2021/01/20 08:45:21;;;;;;;4.93;1.57;;;8.30;99.90;;;;;;3964692;30;20229;-93
2021/01/20 08:47:35;;;;;;;8.80;1.90;;;8.20;99.90;;;;;;3964335;30;20193;-94
2021/01/20 08:50:19;;;;;;;8.07;1.97;;;8.00;99.90;;;;;;3970402;30;20202;-95
2021/01/20 08:52:22;;;;;;;3.30;2.00;;;8.00;99.90;;;;;;3953237;30;20196;-95
2021/01/20 08:54:36;;;;;;;3.40;1.80;;;8.00;99.90;;;;;;3948455;30;20213;-94
2021/01/20 08:56:45;;;;;;;4.87;2.10;;;8.00;99.90;;;;;;3963943;30;20248;-95
2021/01/20 08:59:06;;;;;;;5.63;1.90;;;8.10;99.90;;;;;;3969246;30;20177;-94
2021/01/20 09:01:16;;;;;;;2.67;1.70;;;8.10;99.90;;;;;;3949934;30;20251;-93
2021/01/20 09:03:29;;;;;;;3.37;1.70;;;8.10;99.90;;;;;;3952410;30;20185;-94
2021/01/20 09:05:48;;;;;;;;;;;;;;;;;;;;;
2021/01/20 09:08:00;;;;;;;6.50;1.93;;;8.20;99.90;;;;;;3975165;24;20245;-95
2021/01/20 09:11:00;;;;;;;9.73;1.93;;;8.20;99.90;;;;;;3969675;30;20653;-95
2021/01/20 09:13:07;;;;;;;2.20;1.40;;;8.20;99.90;;;;;;3963733;24;20201;-93
2021/01/20 09:15:15;;;;;;;4.43;1.87;;;8.20;99.90;;;;;;3939619;30;20263;-95
2021/01/20 09:17:48;;;;;;;3.63;1.70;;;8.00;99.90;;;;;;3942132;30;20181;-94
2021/01/20 09:19:52;;;;;;;3.13;1.60;;;8.10;99.90;;;;;;3953392;30;20181;-94
2021/01/20 09:21:54;;;;;;;2.97;1.50;;;8.20;99.90;;;;;;3922425;30;20287;-94
2021/01/20 09:24:01;;;;;;;2.63;1.53;;;8.20;99.90;;;;;;3960641;24;20233;-95
2021/01/20 09:26:35;;;;;;;3.53;1.40;;;8.20;99.90;;;;;;3955818;30;20200;-93
2021/01/20 09:28:39;;;;;;;5.10;2.00;;;8.20;99.90;;;;;;3936546;30;20229;-94
2021/01/20 09:33:13;;;;;;;1.47;1.03;;;8.20;99.90;;;;;;4199189;24;20248;-95
2021/01/20 09:35:35;;;;;;;2.97;1.53;;;8.30;99.90;;;;;;3923737;30;20187;-94
2021/01/20 09:37:50;;;;;;;1.73;0.87;;;8.20;99.90;;;;;;3906850;30;20592;-94
2021/01/20 09:42:49;;;;;;;4.00;2.10;;;8.20;99.90;;;;;;3931680;30;20238;-93
2021/01/20 09:45:38;;;;;;;5.33;2.10;;;8.30;99.90;;;;;;3937314;30;20229;-94
2021/01/20 09:47:48;;;;;;;4.57;2.20;;;8.40;99.90;;;;;;3947582;30;20170;-95
2021/01/20 09:50:23;;;;;;;7.53;2.03;;;8.30;99.90;;;;;;3979246;30;20203;-94
2021/01/20 09:53:00;;;;;;;4.03;1.80;;;8.30;99.90;;;;;;3963278;30;20192;-95
2021/01/20 09:55:05;;;;;;;5.47;1.80;;;8.30;99.90;;;;;;3960809;30;20243;-94
2021/01/20 09:57:45;;;;;;;4.67;2.23;;;8.50;99.90;;;;;;3976987;30;20173;-95
2021/01/20 10:00:54;;;;;;;4.00;1.70;;;8.40;99.90;;;;;;3931737;30;20195;-95
2021/01/20 10:03:04;;;;;;;;;;;;;;;;;;;;;
2021/01/20 10:05:31;;;;;;;5.80;2.30;;;8.70;99.90;;;;;;3963822;30;20687;-95
2021/01/20 10:12:25;;;;;;;4.27;1.70;;;8.70;99.90;;;;;;4063960;24;20657;-95
2021/01/20 10:23:24;;;;;;;3.90;1.93;;;8.70;99.90;;;;;;3901033;30;20200;-94
2021/01/20 10:25:45;;;;;;;;;;;;;;;;;;;;;
2021/01/20 10:27:59;;;;;;;4.03;1.67;;;8.80;99.90;;;;;;3947900;30;20178;-95
2021/01/20 10:30:19;;;;;;;3.90;1.60;;;8.80;99.90;;;;;;3932921;30;20185;-94
2021/01/20 10:32:48;;;;;;;4.57;2.00;;;9.00;99.90;;;;;;3933892;30;20252;-94
2021/01/20 10:35:36;;;;;;;3.27;1.70;;;9.00;99.90;;;;;;4015046;24;20306;-94
2021/01/20 10:38:40;;;;;;;3.67;1.50;;;9.20;99.90;;;;;;3963746;24;20248;-93
2021/01/20 10:41:23;;;;;;;3.40;1.70;;;9.30;99.90;;;;;;3944776;30;20203;-94
2021/01/20 10:45:59;;;;;;;4.47;1.50;;;9.20;99.90;;;;;;3988362;24;20260;-94
2021/01/20 10:48:22;;;;;;;;;;;;;;;;;;;;;
2021/01/20 10:50:47;;;;;;;4.70;2.07;;;9.10;99.90;;;;;;3944964;30;20201;-95
2021/01/20 10:53:13;;;;;;;3.43;1.30;;;9.30;99.90;;;;;;3936522;30;20181;-93
2021/01/20 10:55:34;;;;;;;4.20;1.30;;;9.30;99.90;;;;;;3941245;30;20742;-95
2021/01/20 10:57:41;;;;;;;10.87;1.60;;;9.20;99.90;;;;;;3943984;30;20178;-93
2021/01/20 10:59:46;;;;;;;4.23;1.70;;;9.20;99.90;;;;;;3917709;30;20196;-94
2021/01/20 11:04:42;;;;;;;2.50;1.10;;;9.20;99.90;;;;;;3959768;30;20316;-94
2021/01/20 11:11:22;;;;;;;2.63;1.20;;;9.30;99.90;;;;;;3964971;24;20302;-95
2021/01/20 11:13:55;;;;;;;2.67;1.33;;;9.20;99.90;;;;;;3927801;30;20213;-94
2021/01/20 11:16:11;;;;;;;3.17;1.43;;;9.30;99.90;;;;;;3927234;30;20226;-95
2021/01/20 11:18:18;;;;;;;3.47;1.20;;;9.30;99.90;;;;;;4114205;24;20216;-94
2021/01/20 11:21:25;;;;;;;4.97;1.20;;;9.30;99.90;;;;;;4099111;24;20245;-94
2021/01/20 11:23:37;;;;;;;3.50;1.60;;;9.20;99.90;;;;;;3891411;30;20207;-94
2021/01/20 11:25:54;;;;;;;3.23;1.53;;;9.30;99.90;;;;;;3914616;30;20734;-92
2021/01/20 11:30:30;;;;;;;4.30;1.40;;;9.10;99.90;;;;;;3973534;30;20223;-94
2021/01/20 11:32:46;;;;;;;5.10;1.60;;;9.20;99.90;;;;;;3944330;30;20189;-94
2021/01/20 11:34:47;;;;;;;6.20;2.03;;;9.40;99.90;;;;;;3958841;30;20266;-94
2021/01/20 11:36:50;;;;;;;2.53;1.53;;;9.40;99.90;;;;;;3944401;30;20238;-93
2021/01/20 11:39:15;;;;;;;4.80;1.97;;;9.40;99.90;;;;;;3930141;30;20193;-93
2021/01/20 11:41:28;;;;;;;4.60;1.90;;;9.50;99.90;;;;;;4003654;24;20314;-94
2021/01/20 11:43:51;;;;;;;4.93;1.77;;;9.50;99.90;;;;;;3902055;30;20203;-95
2021/01/20 11:45:59;;;;;;;6.07;2.00;;;9.40;99.90;;;;;;3901579;30;20263;-94
2021/01/20 11:48:14;;;;;;;3.03;1.67;;;9.30;99.90;;;;;;3911445;30;20183;-95
2021/01/20 11:50:25;;;;;;;4.80;2.20;;;9.30;99.90;;;;;;3901218;30;20212;-94
2021/01/20 11:52:39;;;;;;;3.73;2.10;;;9.40;99.90;;;;;;3976441;24;20232;-94
2021/01/20 11:54:49;;;;;;;4.50;2.50;;;9.40;99.90;;;;;;3973530;30;20208;-95
2021/01/20 11:57:14;;;;;;;5.73;2.87;;;9.40;99.90;;;;;;3972829;24;20257;-94
2021/01/20 11:59:37;;;;;;;;;;;;;;;;;;;;;
2021/01/20 12:01:50;;;;;;;7.70;3.27;;;9.30;99.90;;;;;;3957645;30;20268;-94
2021/01/20 12:04:03;;;;;;;9.77;4.37;;;9.40;99.90;;;;;;3956875;30;20225;-94
2021/01/20 12:06:14;;;;;;;8.77;3.80;;;9.60;99.90;;;;;;3943737;30;20230;-95
2021/01/20 12:08:28;;;;;;;8.43;3.20;;;9.80;99.90;;;;;;3944441;30;20186;-95
2021/01/20 12:10:39;;;;;;;7.60;2.50;;;9.80;99.90;;;;;;3944237;30;20189;-95
2021/01/20 12:12:46;;;;;;;6.20;2.37;;;9.80;99.90;;;;;;3973426;24;20237;-96
2021/01/20 12:14:52;;;;;;;4.27;2.23;;;9.80;99.90;;;;;;3928639;30;20283;-95